TE90 weather

Flying L Airport
Bandera, Texas, United States

Public forecast

Using degrees Fahrenheit for public forecast. Weather courtesy of forecast.io.

Closest aviation weather report (METAR) to Flying L Airport

Closest report is Kerrville Municipal Louis Schreiner Field, 13.5 nm (25.1 km) NNE. Retrieved 2019/10/21 08:35 UTC (4 minutes ago):

KERV 210835Z AUTO 00000KT 10SM -RA BKN046 OVC055 16/14 A2984 RMK AO2 P0006 T01620140

Closest aviation forecast (TAF) to Flying L Airport

Forecast is more than 6 hours old.

Closest forecast is Lackland Air Force Base, 37.4 nm (69.2 km) SE. Retrieved 2019-10-21 02:03 UTC (7 hours ago):

TAF KSKF 210200Z 2102/2208 15012G18KT 9999 SCT025 SCT250 510653 QNH2969INS BECMG 2104/2105 17009KT 9999 BKN012 510553 QNH2970INS TEMPO 2106/2110 OVC008 BECMG 2109/2110 32010G15KT 9000 -SHRA VCTS BKN020CB OVC250 510102 QNH2973INS TEMPO 2110/2113 35015G25KT 4800 -TSRA SCT006 BKN015CB BKN060 BECMG 2113/2114 01012G20KT 9999 NSW SCT040 SCT250 QNH2987INS BECMG 2118/2119 02010KT 9999 SKC QNH2984INS TX29/2102Z TN19/2113Z